createdAt,value
2018-06-28T00:00:06.416Z,77.53
2018-06-28T00:01:06.414Z,78.40
2018-06-28T00:02:06.408Z,78.40
2018-06-28T00:03:06.403Z,78.78
2018-06-28T00:04:06.402Z,78.59
2018-06-28T00:05:06.396Z,78.40
2018-06-28T00:06:06.397Z,78.69
2018-06-28T00:07:06.387Z,78.55
2018-06-28T00:08:06.386Z,78.84
2018-06-28T00:09:06.379Z,79.03
2018-06-28T00:10:06.375Z,78.59
2018-06-28T00:11:06.373Z,78.78
2018-06-28T00:12:06.366Z,78.74
2018-06-28T00:13:06.362Z,79.22
2018-06-28T00:14:06.357Z,78.17
2018-06-28T00:15:06.354Z,79.51
2018-06-28T00:16:06.349Z,78.84
2018-06-28T00:17:06.345Z,79.32
2018-06-28T00:18:06.340Z,79.51
2018-06-28T00:19:06.336Z,79.13
2018-06-28T00:20:06.536Z,79.51
2018-06-28T00:21:06.330Z,79.13
2018-06-28T00:22:06.323Z,79.32
2018-06-28T00:23:06.319Z,79.41
2018-06-28T00:24:06.316Z,79.03
2018-06-28T00:25:06.311Z,79.70
2018-06-28T00:26:06.306Z,79.60
2018-06-28T00:27:06.302Z,79.22
2018-06-28T00:28:06.298Z,79.03
2018-06-28T00:29:06.293Z,79.03
2018-06-28T00:30:06.290Z,79.13
2018-06-28T00:31:06.284Z,79.80
2018-06-28T00:32:06.280Z,79.41
2018-06-28T00:33:06.276Z,79.41
2018-06-28T00:34:06.271Z,79.41
2018-06-28T00:35:06.267Z,78.84
2018-06-28T00:36:06.262Z,79.70
2018-06-28T00:37:06.258Z,78.93
2018-06-28T00:38:06.253Z,77.40
2018-06-28T00:39:06.249Z,77.02
2018-06-28T00:40:06.245Z,76.92
2018-06-28T00:41:06.240Z,76.48
2018-06-28T00:42:06.235Z,77.25
2018-06-28T00:43:06.231Z,76.96
2018-06-28T00:44:06.227Z,77.73
2018-06-28T00:45:06.226Z,77.34
2018-06-28T00:46:06.217Z,77.78
2018-06-28T00:47:06.213Z,77.97
2018-06-28T00:48:06.212Z,77.69
2018-06-28T00:49:06.204Z,77.69
2018-06-28T00:50:06.401Z,78.17
2018-06-28T00:51:06.194Z,77.69
2018-06-28T00:52:06.190Z,77.88
2018-06-28T00:53:06.186Z,77.11
2018-06-28T00:54:06.181Z,76.92
2018-06-28T00:55:06.176Z,77.11
2018-06-28T00:56:06.171Z,77.40
2018-06-28T00:57:06.168Z,77.15
2018-06-28T00:58:06.162Z,77.31
2018-06-28T00:59:06.157Z,77.53
2018-06-28T01:00:06.155Z,77.73
2018-06-28T01:01:06.149Z,77.31
2018-06-28T01:02:06.144Z,77.31
2018-06-28T01:03:06.140Z,78.36
2018-06-28T01:04:06.135Z,78.07
2018-06-28T01:05:06.131Z,78.55
2018-06-28T01:06:06.126Z,78.55
2018-06-28T01:07:06.121Z,78.45
2018-06-28T01:08:06.117Z,79.41
2018-06-28T01:09:06.113Z,78.64
2018-06-28T01:10:06.109Z,79.22
2018-06-28T01:11:06.103Z,79.75
2018-06-28T01:12:06.099Z,80.04
2018-06-28T01:13:06.095Z,80.24
2018-06-28T01:14:06.090Z,81.20
2018-06-28T01:15:06.085Z,80.24
2018-06-28T01:16:06.081Z,80.24
2018-06-28T01:17:06.076Z,80.52
2018-06-28T01:18:06.071Z,80.71
2018-06-28T01:19:06.068Z,81.10
2018-06-28T01:20:06.062Z,81.20
2018-06-28T01:21:06.058Z,81.77
2018-06-28T01:22:06.053Z,81.77
2018-06-28T01:23:06.048Z,82.43
2018-06-28T01:24:06.044Z,82.43
2018-06-28T01:25:06.040Z,82.43
2018-06-28T01:26:06.034Z,81.96
2018-06-28T01:27:06.030Z,81.96
2018-06-28T01:28:06.025Z,82.63
2018-06-28T01:29:06.021Z,82.78
2018-06-28T01:30:06.018Z,82.49
2018-06-28T01:31:06.011Z,82.59
2018-06-28T01:32:06.009Z,82.49
2018-06-28T01:33:06.003Z,82.97
2018-06-28T01:34:05.999Z,82.68
2018-06-28T01:35:05.992Z,82.87
2018-06-28T01:36:05.987Z,82.59
2018-06-28T01:37:05.983Z,82.49
2018-06-28T01:38:05.979Z,82.87
2018-06-28T01:39:05.972Z,82.68
2018-06-28T01:40:05.969Z,82.78
2018-06-28T01:41:05.964Z,82.59
2018-06-28T01:42:05.958Z,82.40
2018-06-28T01:43:05.960Z,82.78
2018-06-28T01:44:05.949Z,82.40
2018-06-28T01:45:05.944Z,82.34
2018-06-28T01:46:05.938Z,81.86
2018-06-28T01:47:05.933Z,81.86
2018-06-28T01:48:05.932Z,82.15
2018-06-28T01:49:05.924Z,82.34
2018-06-28T01:50:05.921Z,81.92
2018-06-28T01:51:05.914Z,82.30
2018-06-28T01:52:05.910Z,82.20
2018-06-28T01:53:05.994Z,82.30
2018-06-28T01:54:05.899Z,83.16
2018-06-28T01:55:05.895Z,82.97
2018-06-28T01:56:05.889Z,83.06
2018-06-28T01:57:05.884Z,83.26
2018-06-28T01:58:05.879Z,83.73
2018-06-28T01:59:05.874Z,84.22
2018-06-28T02:00:05.874Z,83.73
2018-06-28T02:01:05.864Z,84.12
2018-06-28T02:02:05.858Z,84.31
2018-06-28T02:03:06.056Z,85.03
2018-06-28T02:04:05.849Z,84.55
2018-06-28T02:05:05.844Z,84.27
2018-06-28T02:06:05.842Z,83.98
2018-06-28T02:07:05.833Z,85.22
2018-06-28T02:08:05.829Z,84.75
2018-06-28T02:09:05.824Z,85.13
2018-06-28T02:10:06.021Z,85.61
2018-06-28T02:11:05.814Z,85.89
2018-06-28T02:12:05.808Z,86.08
2018-06-28T02:13:05.816Z,85.71
2018-06-28T02:14:05.799Z,85.99
2018-06-28T02:15:05.793Z,85.71
2018-06-28T02:16:05.788Z,86.08
2018-06-28T02:17:05.783Z,85.71
2018-06-28T02:18:05.777Z,86.28
2018-06-28T02:19:05.772Z,85.89
2018-06-28T02:20:05.969Z,87.14
2018-06-28T02:21:05.763Z,86.66
2018-06-28T02:22:05.756Z,86.57
2018-06-28T02:23:05.751Z,86.18
2018-06-28T02:24:05.750Z,86.47
2018-06-28T02:25:05.741Z,86.28
2018-06-28T02:26:05.735Z,86.37
2018-06-28T02:27:05.735Z,85.89
2018-06-28T02:28:05.725Z,85.99
2018-06-28T02:29:05.720Z,85.89
2018-06-28T02:30:05.714Z,85.80
2018-06-28T02:31:05.709Z,85.71
2018-06-28T02:32:05.707Z,84.94
2018-06-28T02:33:05.698Z,85.03
2018-06-28T02:34:05.695Z,84.75
2018-06-28T02:35:05.687Z,85.13
2018-06-28T02:36:05.682Z,85.41
2018-06-28T02:37:05.677Z,85.71
2018-06-28T02:38:05.671Z,85.51
2018-06-28T02:39:05.665Z,85.89
2018-06-28T02:40:05.670Z,85.99
2018-06-28T02:41:05.658Z,86.08
2018-06-28T02:42:05.649Z,85.66
2018-06-28T02:43:05.644Z,86.14
2018-06-28T02:44:05.639Z,85.66
2018-06-28T02:45:05.633Z,86.71
2018-06-28T02:46:05.632Z,86.23
2018-06-28T02:47:05.622Z,86.90
2018-06-28T02:48:05.619Z,87.00
2018-06-28T02:49:05.611Z,87.48
2018-06-28T02:50:05.605Z,87.38
2018-06-28T02:51:05.600Z,87.09
2018-06-28T02:52:05.595Z,87.57
2018-06-28T02:53:05.590Z,87.76
2018-06-28T02:54:05.587Z,87.76
2018-06-28T02:55:05.581Z,87.62
2018-06-28T02:56:05.573Z,88.01
2018-06-28T02:57:05.567Z,88.20
2018-06-28T02:58:05.564Z,87.82
2018-06-28T02:59:05.556Z,88.20
2018-06-28T03:00:05.550Z,87.91
2018-06-28T03:01:05.546Z,87.91
2018-06-28T03:02:05.542Z,87.82
2018-06-28T03:03:05.533Z,88.01
2018-06-28T03:04:05.528Z,88.01
2018-06-28T03:05:05.522Z,88.68
2018-06-28T03:06:05.516Z,88.68
2018-06-28T03:07:05.511Z,88.96
2018-06-28T03:08:05.505Z,88.87
2018-06-28T03:09:05.500Z,88.58
2018-06-28T03:10:05.493Z,88.48
2018-06-28T03:11:05.488Z,88.87
2018-06-28T03:12:05.485Z,89.34
2018-06-28T03:13:05.478Z,89.06
2018-06-28T03:14:05.474Z,89.25
2018-06-28T03:15:05.473Z,89.44
2018-06-28T03:16:05.460Z,89.25
2018-06-28T03:17:05.454Z,89.06
2018-06-28T03:18:05.448Z,88.68
2018-06-28T03:19:05.453Z,89.06
2018-06-28T03:20:05.438Z,89.44
2018-06-28T03:21:05.437Z,89.06
2018-06-28T03:22:05.424Z,89.63
2018-06-28T03:23:05.422Z,89.82
2018-06-28T03:24:05.413Z,89.34
2018-06-28T03:25:05.408Z,90.20
2018-06-28T03:26:05.402Z,90.78
2018-06-28T03:27:05.399Z,90.39
2018-06-28T03:28:05.392Z,90.49
2018-06-28T03:29:05.386Z,90.16
2018-06-28T03:30:05.380Z,90.30
2018-06-28T03:31:05.396Z,90.16
2018-06-28T03:32:05.367Z,90.16
2018-06-28T03:33:05.365Z,89.59
2018-06-28T03:34:05.354Z,90.01
2018-06-28T03:35:05.349Z,90.39
2018-06-28T03:36:05.346Z,90.35
2018-06-28T03:37:05.337Z,90.20
2018-06-28T03:38:05.510Z,90.39
2018-06-28T03:39:05.326Z,90.30
2018-06-28T03:40:05.319Z,90.30
2018-06-28T03:41:05.314Z,90.20
2018-06-28T03:42:05.312Z,90.49
2018-06-28T03:43:05.301Z,90.30
2018-06-28T03:44:05.298Z,90.78
2018-06-28T03:45:05.293Z,90.11
2018-06-28T03:46:05.287Z,89.92
2018-06-28T03:47:05.281Z,90.78
2018-06-28T03:48:05.272Z,90.30
2018-06-28T03:49:05.269Z,90.20
2018-06-28T03:50:05.262Z,90.78
2018-06-28T03:51:05.255Z,90.20
2018-06-28T03:52:05.252Z,90.01
2018-06-28T03:53:05.243Z,90.11
2018-06-28T03:54:05.238Z,90.01
2018-06-28T03:55:05.241Z,89.92
2018-06-28T03:56:05.229Z,90.97
2018-06-28T03:57:05.219Z,90.49
2018-06-28T03:58:05.214Z,90.30
2018-06-28T03:59:05.207Z,90.68
2018-06-28T04:00:05.206Z,90.78
2018-06-28T04:01:05.196Z,90.59
2018-06-28T04:02:05.189Z,90.11
2018-06-28T04:03:05.189Z,90.49
2018-06-28T04:04:05.181Z,90.68
2018-06-28T04:05:05.175Z,90.49
2018-06-28T04:06:05.172Z,90.59
2018-06-28T04:07:05.161Z,90.88
2018-06-28T04:08:05.154Z,90.11
2018-06-28T04:09:05.149Z,90.59
2018-06-28T04:10:05.145Z,90.88
2018-06-28T04:11:05.141Z,90.39
2018-06-28T04:12:05.138Z,90.49
2018-06-28T04:13:05.128Z,90.20
2018-06-28T04:14:05.120Z,90.30
2018-06-28T04:15:05.113Z,90.34
2018-06-28T04:16:05.109Z,90.30
2018-06-28T04:17:05.102Z,90.53
2018-06-28T04:18:05.297Z,90.01
2018-06-28T04:19:05.090Z,89.82
2018-06-28T04:20:05.085Z,90.11
2018-06-28T04:21:05.285Z,90.49
2018-06-28T04:22:05.072Z,89.73
2018-06-28T04:23:05.070Z,90.44
2018-06-28T04:24:05.061Z,90.63
2018-06-28T04:25:05.058Z,90.39
2018-06-28T04:26:05.053Z,90.78
2018-06-28T04:27:05.044Z,90.68
2018-06-28T04:28:05.038Z,90.68
2018-06-28T04:29:05.038Z,90.78
2018-06-28T04:30:05.028Z,90.20
2018-06-28T04:31:05.025Z,90.20
2018-06-28T04:32:05.016Z,90.73
2018-06-28T04:33:05.011Z,90.34
2018-06-28T04:34:05.003Z,90.92
2018-06-28T04:35:04.999Z,91.11
2018-06-28T04:36:04.993Z,90.34
2018-06-28T04:37:04.996Z,90.06
2018-06-28T04:38:04.985Z,90.16
2018-06-28T04:39:05.178Z,90.53
2018-06-28T04:40:04.971Z,90.63
2018-06-28T04:41:05.025Z,90.34
2018-06-28T04:42:04.964Z,90.53
2018-06-28T04:43:04.958Z,90.53
2018-06-28T04:44:04.953Z,90.25
2018-06-28T04:45:04.943Z,90.34
2018-06-28T04:46:04.941Z,90.53
2018-06-28T04:47:04.937Z,90.53
2018-06-28T04:48:04.927Z,90.34
2018-06-28T04:49:04.922Z,90.67
2018-06-28T04:50:04.917Z,90.58
2018-06-28T04:51:04.911Z,90.96
2018-06-28T04:52:05.111Z,90.30
2018-06-28T04:53:04.906Z,90.77
2018-06-28T04:54:04.895Z,90.39
2018-06-28T04:55:04.895Z,90.01
2018-06-28T04:56:04.891Z,89.34
2018-06-28T04:57:04.880Z,88.29
2018-06-28T04:58:04.874Z,88.67
2018-06-28T04:59:04.869Z,89.15
2018-06-28T05:00:04.866Z,89.24
2018-06-28T05:01:04.861Z,88.76
2018-06-28T05:02:04.853Z,89.43
2018-06-28T05:03:04.848Z,89.05
2018-06-28T05:04:04.843Z,87.81
2018-06-28T05:05:04.838Z,86.13
2018-06-28T05:06:04.832Z,86.04
2018-06-28T05:07:04.885Z,85.94
2018-06-28T05:08:04.823Z,86.61
2018-06-28T05:09:04.818Z,87.08
2018-06-28T05:10:04.813Z,86.90
2018-06-28T05:11:04.807Z,86.80
2018-06-28T05:12:04.802Z,86.04
2018-06-28T05:13:04.804Z,85.94
2018-06-28T05:14:04.793Z,86.51
2018-06-28T05:15:04.874Z,86.51
2018-06-28T05:16:04.783Z,86.04
2018-06-28T05:17:04.847Z,86.41
2018-06-28T05:18:04.773Z,86.80
2018-06-28T05:19:05.017Z,86.55
2018-06-28T05:20:04.767Z,86.65
2018-06-28T05:21:04.759Z,86.46
2018-06-28T05:22:04.761Z,86.74
2018-06-28T05:23:04.749Z,86.55
2018-06-28T05:24:04.744Z,86.84
2018-06-28T05:25:04.741Z,86.65
2018-06-28T05:26:04.735Z,86.94
2018-06-28T05:27:04.730Z,86.65
2018-06-28T05:28:04.807Z,86.31
2018-06-28T05:29:04.740Z,86.31
2018-06-28T05:30:04.717Z,85.83
2018-06-28T05:31:04.713Z,85.93
2018-06-28T05:32:04.713Z,85.25
2018-06-28T05:33:04.705Z,85.16
2018-06-28T05:34:04.704Z,85.06
2018-06-28T05:35:04.697Z,83.76
2018-06-28T05:36:04.692Z,83.76
2018-06-28T05:37:04.687Z,83.09
2018-06-28T05:38:04.687Z,83.29
2018-06-28T05:39:04.678Z,83.09
2018-06-28T05:40:04.674Z,82.65
2018-06-28T05:41:04.873Z,81.89
2018-06-28T05:42:04.666Z,81.98
2018-06-28T05:43:04.662Z,82.08
2018-06-28T05:44:04.658Z,81.89
2018-06-28T05:45:04.658Z,80.93
2018-06-28T05:46:04.659Z,79.97
2018-06-28T05:47:04.654Z,80.68
2018-06-28T05:48:04.644Z,80.30
2018-06-28T05:49:04.642Z,81.07
2018-06-28T05:50:04.635Z,80.58
2018-06-28T05:51:04.632Z,79.34
2018-06-28T05:52:04.628Z,79.14
2018-06-28T05:53:04.629Z,78.57
2018-06-28T05:54:04.637Z,79.24
2018-06-28T05:55:04.617Z,79.14
2018-06-28T05:56:04.618Z,78.99
2018-06-28T05:57:04.610Z,78.03
2018-06-28T05:58:04.611Z,78.61
2018-06-28T05:59:04.607Z,78.42
2018-06-28T06:00:04.600Z,78.90
2018-06-28T06:01:04.600Z,78.70
2018-06-28T06:02:04.595Z,78.32
2018-06-28T06:03:04.590Z,77.50
2018-06-28T06:04:04.590Z,77.01
2018-06-28T06:05:04.584Z,77.50
2018-06-28T06:06:04.583Z,76.92
2018-06-28T06:07:04.578Z,77.50
2018-06-28T06:08:04.574Z,77.15
2018-06-28T06:09:04.574Z,77.78
2018-06-28T06:10:04.567Z,78.50
2018-06-28T06:11:04.565Z,77.44
2018-06-28T06:12:04.642Z,77.25
2018-06-28T06:13:04.564Z,77.06
2018-06-28T06:14:04.758Z,77.06
2018-06-28T06:15:04.558Z,76.77
2018-06-28T06:16:04.551Z,77.15
2018-06-28T06:17:04.548Z,76.67
2018-06-28T06:18:04.544Z,76.42
2018-06-28T06:19:04.545Z,75.84
2018-06-28T06:20:04.539Z,76.23
2018-06-28T06:21:04.537Z,75.65
2018-06-28T06:22:04.534Z,75.75
2018-06-28T06:23:04.537Z,74.69
2018-06-28T06:24:04.534Z,73.73
2018-06-28T06:25:04.528Z,73.09
2018-06-28T06:26:04.524Z,72.61
2018-06-28T06:27:04.525Z,72.42
2018-06-28T06:28:04.519Z,72.52
2018-06-28T06:29:04.517Z,71.46
2018-06-28T06:30:04.514Z,72.61
2018-06-28T06:31:04.512Z,73.09
2018-06-28T06:32:04.510Z,71.36
2018-06-28T06:33:04.714Z,70.98
2018-06-28T06:34:04.504Z,71.01
2018-06-28T06:35:04.503Z,70.53
2018-06-28T06:36:04.501Z,69.57
2018-06-28T06:37:04.499Z,70.05
2018-06-28T06:38:04.497Z,69.85
2018-06-28T06:39:04.494Z,69.57
2018-06-28T06:40:04.494Z,68.74
2018-06-28T06:41:04.693Z,68.16
2018-06-28T06:42:04.491Z,68.16
2018-06-28T06:43:04.486Z,68.26
2018-06-28T06:44:04.485Z,68.16
2018-06-28T06:45:04.483Z,67.10
2018-06-28T06:46:04.481Z,66.52
2018-06-28T06:47:04.480Z,68.19
2018-06-28T06:48:04.481Z,68.10
2018-06-28T06:49:04.478Z,68.29
2018-06-28T06:50:04.475Z,67.13
2018-06-28T06:51:04.476Z,67.61
2018-06-28T06:52:04.472Z,66.27
2018-06-28T06:53:04.471Z,65.98
2018-06-28T06:54:04.468Z,66.36
2018-06-28T06:55:04.469Z,65.72
2018-06-28T06:56:04.467Z,66.39
2018-06-28T06:57:04.467Z,64.76
2018-06-28T06:58:04.463Z,64.08
2018-06-28T06:59:04.665Z,64.76
2018-06-28T07:00:04.461Z,64.37
2018-06-28T07:01:04.663Z,63.70
2018-06-28T07:02:04.458Z,64.47
2018-06-28T07:03:04.458Z,64.37
2018-06-28T07:04:04.460Z,64.89
2018-06-28T07:05:04.456Z,65.95
2018-06-28T07:06:04.457Z,64.69
2018-06-28T07:07:04.453Z,64.11
2018-06-28T07:08:04.456Z,64.11
2018-06-28T07:09:04.454Z,63.54
2018-06-28T07:10:04.457Z,63.28
2018-06-28T07:11:04.451Z,63.85
2018-06-28T07:12:04.451Z,61.54
2018-06-28T07:13:04.451Z,60.80
2018-06-28T07:14:04.449Z,60.31
2018-06-28T07:15:04.450Z,60.31
2018-06-28T07:16:04.559Z,59.83
2018-06-28T07:17:04.451Z,60.31
2018-06-28T07:18:04.455Z,59.55
2018-06-28T07:19:04.507Z,59.45
2018-06-28T07:20:04.457Z,59.48
2018-06-28T07:21:04.455Z,58.87
2018-06-28T07:22:04.455Z,60.06
2018-06-28T07:23:04.513Z,58.61
2018-06-28T07:24:04.466Z,57.45
2018-06-28T07:25:04.466Z,58.73
2018-06-28T07:26:04.464Z,58.25
2018-06-28T07:27:04.548Z,57.38
2018-06-28T07:28:04.585Z,57.41
2018-06-28T07:29:04.472Z,57.60
2018-06-28T07:30:04.474Z,56.45
2018-06-28T07:31:04.480Z,55.38
2018-06-28T07:32:04.484Z,55.31
2018-06-28T07:33:04.505Z,55.79
2018-06-28T07:34:04.496Z,54.85
2018-06-28T07:35:04.492Z,56.30
2018-06-28T07:36:04.491Z,55.15
2018-06-28T07:37:04.495Z,54.57
2018-06-28T07:38:04.499Z,55.53
2018-06-28T07:39:04.502Z,56.04
2018-06-28T07:40:04.512Z,55.07
2018-06-28T07:41:04.522Z,54.98
2018-06-28T07:42:04.516Z,54.39
2018-06-28T07:43:04.524Z,52.97
2018-06-28T07:44:04.530Z,53.75
2018-06-28T07:45:04.540Z,52.97
2018-06-28T07:46:04.542Z,52.90
2018-06-28T07:47:04.550Z,51.35
2018-06-28T07:48:04.558Z,51.64
2018-06-28T07:49:04.628Z,51.25
2018-06-28T07:50:04.579Z,51.67
2018-06-28T07:51:04.586Z,51.16
2018-06-28T07:52:04.599Z,50.70
2018-06-28T07:53:04.606Z,50.99
2018-06-28T07:54:04.612Z,51.21
2018-06-28T07:55:04.627Z,51.21
2018-06-28T07:56:04.634Z,49.56
2018-06-28T07:57:04.650Z,48.88
2018-06-28T07:58:04.657Z,51.21
2018-06-28T07:59:04.666Z,50.07
2018-06-28T08:00:04.678Z,49.00
2018-06-28T08:01:04.693Z,48.52
2018-06-28T08:03:04.716Z,48.69
2018-06-28T08:04:04.725Z,51.31
2018-06-28T08:05:04.738Z,49.58
2018-06-28T08:06:04.752Z,47.64
2018-06-28T08:07:04.762Z,48.83
2018-06-28T08:08:04.775Z,49.61
2018-06-28T08:09:04.791Z,47.86
2018-06-28T08:10:04.804Z,46.41
2018-06-28T08:11:04.814Z,47.18
2018-06-28T08:12:04.827Z,46.79
2018-06-28T08:13:04.848Z,46.89
2018-06-28T08:14:04.859Z,45.43
2018-06-28T08:15:04.869Z,45.84
2018-06-28T08:16:04.884Z,46.74
2018-06-28T08:17:04.894Z,46.55
2018-06-28T08:18:04.907Z,43.05
2018-06-28T08:19:04.924Z,42.66
2018-06-28T08:20:04.936Z,45.28
2018-06-28T08:21:04.950Z,42.85
2018-06-28T08:22:04.968Z,43.34
2018-06-28T08:23:04.978Z,43.92
2018-06-28T08:24:04.993Z,40.91
2018-06-28T08:25:05.012Z,43.15
2018-06-28T08:26:05.021Z,42.97
2018-06-28T08:27:05.036Z,43.75
2018-06-28T08:28:05.053Z,43.85
2018-06-28T08:29:05.066Z,42.02
2018-06-28T08:30:05.081Z,42.99
2018-06-28T08:31:05.095Z,44.16
2018-06-28T08:32:05.109Z,44.48
2018-06-28T08:33:05.126Z,43.40
2018-06-28T08:34:05.140Z,42.72
2018-06-28T08:35:05.359Z,41.73
2018-06-28T08:36:05.194Z,43.29
2018-06-28T08:37:05.187Z,42.63
2018-06-28T08:38:05.203Z,42.33
2018-06-28T08:39:05.216Z,43.38
2018-06-28T08:40:05.232Z,43.67
2018-06-28T08:41:05.251Z,45.40
2018-06-28T08:42:05.269Z,44.04
2018-06-28T08:43:05.281Z,43.87
2018-06-28T08:44:05.297Z,42.60
2018-06-28T08:45:05.513Z,42.11
2018-06-28T08:46:05.329Z,42.43
2018-06-28T08:47:05.343Z,42.53
2018-06-28T08:48:05.358Z,42.65
2018-06-28T08:49:05.404Z,41.77
2018-06-28T08:50:05.390Z,40.72
2018-06-28T08:51:05.447Z,42.66
2018-06-28T08:52:05.428Z,41.01
2018-06-28T08:53:05.645Z,41.79
2018-06-28T08:54:05.457Z,42.66
2018-06-28T08:55:05.479Z,42.38
2018-06-28T08:56:05.489Z,42.18
2018-06-28T08:57:05.515Z,41.28
2018-06-28T08:58:05.727Z,41.09
2018-06-28T08:59:05.537Z,40.60
2018-06-28T09:00:05.553Z,41.28
2018-06-28T09:01:05.573Z,41.94
2018-06-28T09:02:05.607Z,42.06
2018-06-28T09:03:05.612Z,41.48
2018-06-28T09:04:05.620Z,40.21
2018-06-28T09:05:05.639Z,40.99
2018-06-28T09:06:05.652Z,41.69
2018-06-28T09:07:05.672Z,42.38
2018-06-28T09:09:05.706Z,41.20
2018-06-28T09:10:05.723Z,39.62
2018-06-28T09:11:05.741Z,40.80
2018-06-28T09:12:05.752Z,42.35
2018-06-28T09:13:05.774Z,42.06
2018-06-28T09:14:05.788Z,40.31
2018-06-28T09:15:05.806Z,40.72
2018-06-28T09:16:05.823Z,39.26
2018-06-28T09:17:05.841Z,40.73
2018-06-28T09:18:06.059Z,40.25
2018-06-28T09:19:05.875Z,38.77
2018-06-28T09:20:05.888Z,38.77
2018-06-28T09:21:05.905Z,39.43
2018-06-28T09:22:05.929Z,39.72
2018-06-28T09:23:06.063Z,40.50
2018-06-28T09:24:05.956Z,41.69
2018-06-28T09:25:05.979Z,40.42
2018-06-28T09:26:05.990Z,40.52
2018-06-28T09:27:06.006Z,39.96
2018-06-28T09:28:06.026Z,39.47
2018-06-28T09:29:06.043Z,38.79
2018-06-28T09:30:06.058Z,38.79
2018-06-28T09:31:06.073Z,36.84
2018-06-28T09:33:06.108Z,38.12
2018-06-28T09:34:06.124Z,37.62
2018-06-28T09:35:06.144Z,39.08
2018-06-28T09:36:06.161Z,40.25
2018-06-28T09:37:06.177Z,38.42
2018-06-28T09:38:06.189Z,37.95
2018-06-28T09:39:06.206Z,36.78
2018-06-28T09:40:06.426Z,35.02
2018-06-28T09:41:06.240Z,36.96
2018-06-28T09:42:06.256Z,37.25
2018-06-28T09:43:06.274Z,35.78
2018-06-28T09:44:06.292Z,37.35
2018-06-28T09:45:06.312Z,37.45
2018-06-28T09:46:06.323Z,36.29
2018-06-28T09:47:06.340Z,36.11
2018-06-28T09:48:06.362Z,36.23
2018-06-28T09:49:06.381Z,36.91
2018-06-28T09:50:06.398Z,36.85
2018-06-28T09:51:06.410Z,34.60
2018-06-28T09:53:06.448Z,34.31
2018-06-28T09:54:06.465Z,31.85
2018-06-28T09:55:06.691Z,32.91
2018-06-28T09:56:06.501Z,32.81
2018-06-28T09:57:06.519Z,33.28
2018-06-28T09:58:06.536Z,35.33
2018-06-28T09:59:06.756Z,34.14
2018-06-28T10:00:06.578Z,35.41
2018-06-28T10:01:06.590Z,36.00
2018-06-28T10:02:06.611Z,34.34
2018-06-28T10:03:06.625Z,36.49
2018-06-28T10:04:06.643Z,33.38
2018-06-28T10:05:06.661Z,34.44
2018-06-28T10:06:06.687Z,34.63
2018-06-28T10:07:06.698Z,35.22
2018-06-28T10:08:06.920Z,35.90
2018-06-28T10:09:06.732Z,37.57
2018-06-28T10:10:06.750Z,35.63
2018-06-28T10:11:06.768Z,36.72
2018-06-28T10:12:06.785Z,36.23
2018-06-28T10:13:06.802Z,34.97
2018-06-28T10:14:07.028Z,36.55
2018-06-28T10:15:06.837Z,35.68
2018-06-28T10:16:06.860Z,34.80
2018-06-28T10:17:06.875Z,34.50
2018-06-28T10:18:07.000Z,34.60
2018-06-28T10:19:06.913Z,33.80
2018-06-28T10:20:06.930Z,33.33
2018-06-28T10:21:06.945Z,33.23
2018-06-28T10:22:06.962Z,34.42
2018-06-28T10:23:06.983Z,33.94
2018-06-28T10:24:06.999Z,33.74
2018-06-28T10:25:07.121Z,32.46
2018-06-28T10:26:07.036Z,32.95
2018-06-28T10:27:07.060Z,33.34
2018-06-28T10:28:07.075Z,33.45
2018-06-28T10:29:07.091Z,34.52
2018-06-28T10:30:07.109Z,35.50
2018-06-28T10:31:07.129Z,33.84
2018-06-28T10:32:07.149Z,30.91
2018-06-28T10:33:07.171Z,33.15
2018-06-28T10:34:07.183Z,34.52
2018-06-28T10:35:07.201Z,33.54
2018-06-28T10:36:07.220Z,32.37
2018-06-28T10:37:07.239Z,32.86
2018-06-28T10:38:07.257Z,31.49
2018-06-28T10:39:07.276Z,32.17
2018-06-28T10:40:07.303Z,33.85
2018-06-28T10:41:07.314Z,32.78
2018-06-28T10:42:07.335Z,32.78
2018-06-28T10:43:07.351Z,32.78
2018-06-28T10:44:07.373Z,32.07
2018-06-28T10:45:07.394Z,32.75
2018-06-28T10:46:07.410Z,34.33
2018-06-28T10:47:07.429Z,31.98
2018-06-28T10:48:07.445Z,33.34
2018-06-28T10:49:07.492Z,33.34
2018-06-28T10:50:07.486Z,33.46
2018-06-28T10:51:07.501Z,31.51
2018-06-28T10:52:07.520Z,32.78
2018-06-28T10:53:07.744Z,32.97
2018-06-28T10:54:07.641Z,33.38
2018-06-28T10:55:07.575Z,30.36
2018-06-28T10:56:07.594Z,32.12
2018-06-28T10:57:07.617Z,31.93
2018-06-28T10:58:07.635Z,31.04
2018-06-28T10:59:07.652Z,28.69
2018-06-28T11:00:07.669Z,29.38
2018-06-28T11:01:07.688Z,29.58
2018-06-28T11:02:07.707Z,31.45
2018-06-28T11:03:07.725Z,32.63
2018-06-28T11:04:07.745Z,30.57
2018-06-28T11:05:07.768Z,29.60
2018-06-28T11:06:07.782Z,32.15
2018-06-28T11:07:07.801Z,29.88
2018-06-28T11:08:07.821Z,30.85
2018-06-28T11:09:08.042Z,31.91
2018-06-28T11:10:08.067Z,32.71
2018-06-28T11:11:07.876Z,31.03
2018-06-28T11:12:07.896Z,30.72
2018-06-28T11:13:07.913Z,32.19
2018-06-28T11:14:07.930Z,33.50
2018-06-28T11:15:07.949Z,30.94
2018-06-28T11:16:07.972Z,30.26
2018-06-28T11:17:07.988Z,30.55
2018-06-28T11:18:08.009Z,27.72
2018-06-28T11:19:08.024Z,30.94
2018-06-28T11:20:08.048Z,31.04
2018-06-28T11:21:08.265Z,29.77
2018-06-28T11:22:08.078Z,30.55
2018-06-28T11:23:08.097Z,32.14
2018-06-28T11:24:08.116Z,30.47
2018-06-28T11:25:08.151Z,29.20
2018-06-28T11:26:08.355Z,29.02
2018-06-28T11:27:08.176Z,28.29
2018-06-28T11:28:08.193Z,28.86
2018-06-28T11:29:08.210Z,30.93
2018-06-28T11:30:08.229Z,30.75
2018-06-28T11:31:08.252Z,29.75
2018-06-28T11:32:08.267Z,30.44
2018-06-28T11:33:08.290Z,31.03
2018-06-28T11:34:08.359Z,31.01
2018-06-28T11:35:08.321Z,30.44
2018-06-28T11:36:08.339Z,29.97
2018-06-28T11:37:08.361Z,30.96
2018-06-28T11:38:08.375Z,30.49
2018-06-28T11:39:08.397Z,30.18
2018-06-28T11:40:08.412Z,30.65
2018-06-28T11:41:08.438Z,31.62
2018-06-28T11:42:08.447Z,30.94
2018-06-28T11:43:08.464Z,31.54
2018-06-28T11:44:08.482Z,31.44
2018-06-28T11:45:08.503Z,30.27
2018-06-28T11:46:08.519Z,30.07
2018-06-28T11:47:08.543Z,30.83
2018-06-28T11:48:08.560Z,30.85
2018-06-28T11:49:08.574Z,30.75
2018-06-28T11:50:08.590Z,28.30
2018-06-28T11:51:08.814Z,30.46
2018-06-28T11:52:08.669Z,28.30
2018-06-28T11:53:08.845Z,28.50
2018-06-28T11:54:08.659Z,29.31
2018-06-28T11:55:08.684Z,28.61
2018-06-28T11:56:08.695Z,28.72
2018-06-28T11:57:08.916Z,29.00
2018-06-28T11:58:08.731Z,28.69
2018-06-28T11:59:08.750Z,28.81
2018-06-28T12:00:08.768Z,29.41
2018-06-28T12:01:08.794Z,30.30
2018-06-28T12:02:08.805Z,28.26
2018-06-28T12:03:08.827Z,29.05
2018-06-28T12:04:08.847Z,29.35
2018-06-28T12:05:08.880Z,28.97
2018-06-28T12:06:08.880Z,29.35
2018-06-28T12:07:08.899Z,29.52
2018-06-28T12:08:08.920Z,30.10
2018-06-28T12:09:08.936Z,29.20
2018-06-28T12:10:08.955Z,30.36
2018-06-28T12:11:08.974Z,29.68
2018-06-28T12:12:08.995Z,31.16
2018-06-28T12:13:09.009Z,31.17
2018-06-28T12:14:09.431Z,30.18
2018-06-28T12:15:09.045Z,29.60
2018-06-28T12:16:09.063Z,30.88
2018-06-28T12:17:09.081Z,28.72
2018-06-28T12:19:09.117Z,29.59
2018-06-28T12:20:09.143Z,29.36
2018-06-28T12:21:09.153Z,29.74
2018-06-28T12:22:09.170Z,30.82
2018-06-28T12:23:09.187Z,30.74
2018-06-28T12:24:09.210Z,30.15
2018-06-28T12:25:09.220Z,30.44
2018-06-28T12:26:09.236Z,30.85
2018-06-28T12:27:09.254Z,30.07
2018-06-28T12:28:09.270Z,31.55
2018-06-28T12:29:09.286Z,30.58
2018-06-28T12:30:09.302Z,29.10
2018-06-28T12:31:09.336Z,30.05
2018-06-28T12:32:09.337Z,30.15
2018-06-28T12:33:09.350Z,31.78
2018-06-28T12:34:09.370Z,32.84
2018-06-28T12:35:09.378Z,33.22
2018-06-28T12:36:09.392Z,33.12
2018-06-28T12:37:09.409Z,33.11
2018-06-28T12:38:09.420Z,33.20
2018-06-28T12:39:09.472Z,33.80
2018-06-28T12:40:09.448Z,33.79
2018-06-28T12:41:09.455Z,33.90
2018-06-28T12:42:09.466Z,33.01
2018-06-28T12:43:09.480Z,34.11
2018-06-28T12:44:09.491Z,32.95
2018-06-28T12:45:09.504Z,32.76
2018-06-28T12:46:09.563Z,33.53
2018-06-28T12:47:09.532Z,32.84
2018-06-28T12:48:09.539Z,33.14
2018-06-28T12:49:09.551Z,31.98
2018-06-28T12:50:09.566Z,32.40
2018-06-28T12:51:09.574Z,32.14
2018-06-28T12:52:09.588Z,30.58
2018-06-28T12:53:09.602Z,30.60
2018-06-28T12:54:09.626Z,28.36
2018-06-28T12:55:09.629Z,27.37
2018-06-28T12:56:09.640Z,29.62
2018-06-28T12:57:09.654Z,30.21